sensor_id;sensor_type;location;lat;lon;timestamp;temperature;humidity
26342;DHT22;14054;50.108;8.640;2022-08-03T00:01:51;22.80;98.30
26342;DHT22;14054;50.108;8.640;2022-08-03T00:04:16;22.80;98.60
26342;DHT22;14054;50.108;8.640;2022-08-03T00:06:42;22.70;99.00
26342;DHT22;14054;50.108;8.640;2022-08-03T00:09:08;22.80;98.70
26342;DHT22;14054;50.108;8.640;2022-08-03T00:11:34;22.70;99.10
26342;DHT22;14054;50.108;8.640;2022-08-03T00:14:00;22.50;99.30
26342;DHT22;14054;50.108;8.640;2022-08-03T00:16:25;22.70;99.90
26342;DHT22;14054;50.108;8.640;2022-08-03T00:26:14;22.50;99.90
26342;DHT22;14054;50.108;8.640;2022-08-03T00:28:39;22.70;99.90
26342;DHT22;14054;50.108;8.640;2022-08-03T00:31:06;22.70;99.90
26342;DHT22;14054;50.108;8.640;2022-08-03T00:33:31;22.70;99.90
26342;DHT22;14054;50.108;8.640;2022-08-03T00:35:57;22.40;99.90
26342;DHT22;14054;50.108;8.640;2022-08-03T00:38:23;22.70;99.90
26342;DHT22;14054;50.108;8.640;2022-08-03T00:40:48;22.70;99.90
26342;DHT22;14054;50.108;8.640;2022-08-03T00:43:14;22.30;99.10
26342;DHT22;14054;50.108;8.640;2022-08-03T00:45:41;22.30;99.00
26342;DHT22;14054;50.108;8.640;2022-08-03T00:48:09;22.30;99.10
26342;DHT22;14054;50.108;8.640;2022-08-03T00:50:38;22.30;99.00
26342;DHT22;14054;50.108;8.640;2022-08-03T00:53:05;22.30;98.80
26342;DHT22;14054;50.108;8.640;2022-08-03T00:55:32;22.30;98.70
26342;DHT22;14054;50.108;8.640;2022-08-03T00:57:57;22.30;98.70
26342;DHT22;14054;50.108;8.640;2022-08-03T01:00:25;22.30;98.80
26342;DHT22;14054;50.108;8.640;2022-08-03T01:02:52;22.30;98.90
26342;DHT22;14054;50.108;8.640;2022-08-03T01:05:21;22.20;99.10
26342;DHT22;14054;50.108;8.640;2022-08-03T01:08:03;22.20;99.20
26342;DHT22;14054;50.108;8.640;2022-08-03T01:10:41;22.10;99.50
26342;DHT22;14054;50.108;8.640;2022-08-03T01:16:14;21.80;99.90
26342;DHT22;14054;50.108;8.640;2022-08-03T01:18:56;21.70;99.90
26342;DHT22;14054;50.108;8.640;2022-08-03T01:21:31;21.60;99.90
26342;DHT22;14054;50.108;8.640;2022-08-03T01:27:02;21.50;99.90
26342;DHT22;14054;50.108;8.640;2022-08-03T01:29:59;21.40;99.90
26342;DHT22;14054;50.108;8.640;2022-08-03T01:32:34;21.30;99.90
26342;DHT22;14054;50.108;8.640;2022-08-03T01:35:25;21.30;99.90
26342;DHT22;14054;50.108;8.640;2022-08-03T01:37:55;21.30;99.90
26342;DHT22;14054;50.108;8.640;2022-08-03T01:40:24;21.30;99.90
26342;DHT22;14054;50.108;8.640;2022-08-03T01:42:51;21.10;99.90
26342;DHT22;14054;50.108;8.640;2022-08-03T01:45:20;21.00;99.90
26342;DHT22;14054;50.108;8.640;2022-08-03T01:50:14;21.20;99.90
26342;DHT22;14054;50.108;8.640;2022-08-03T01:52:43;21.40;99.90
26342;DHT22;14054;50.108;8.640;2022-08-03T01:55:11;21.20;99.90
26342;DHT22;14054;50.108;8.640;2022-08-03T01:57:38;21.20;99.90
26342;DHT22;14054;50.108;8.640;2022-08-03T02:00:05;21.40;99.90
26342;DHT22;14054;50.108;8.640;2022-08-03T02:02:34;21.00;99.90
26342;DHT22;14054;50.108;8.640;2022-08-03T02:05:03;20.50;99.90
26342;DHT22;14054;50.108;8.640;2022-08-03T02:07:31;21.10;99.90
26342;DHT22;14054;50.108;8.640;2022-08-03T02:09:58;20.90;99.90
26342;DHT22;14054;50.108;8.640;2022-08-03T02:12:25;20.80;99.90
26342;DHT22;14054;50.108;8.640;2022-08-03T02:14:53;20.90;99.90
26342;DHT22;14054;50.108;8.640;2022-08-03T02:17:20;21.00;99.90
26342;DHT22;14054;50.108;8.640;2022-08-03T02:19:49;20.90;99.90
26342;DHT22;14054;50.108;8.640;2022-08-03T02:22:16;20.90;99.90
26342;DHT22;14054;50.108;8.640;2022-08-03T02:24:42;20.80;99.90
26342;DHT22;14054;50.108;8.640;2022-08-03T02:27:21;20.80;99.90
26342;DHT22;14054;50.108;8.640;2022-08-03T02:29:52;20.70;99.90
26342;DHT22;14054;50.108;8.640;2022-08-03T02:32:21;20.70;99.90
26342;DHT22;14054;50.108;8.640;2022-08-03T02:34:50;20.70;99.90
26342;DHT22;14054;50.108;8.640;2022-08-03T02:37:18;20.70;99.90
26342;DHT22;14054;50.108;8.640;2022-08-03T02:39:44;20.70;99.90
26342;DHT22;14054;50.108;8.640;2022-08-03T02:42:13;20.60;99.90
26342;DHT22;14054;50.108;8.640;2022-08-03T02:44:39;20.60;99.90
26342;DHT22;14054;50.108;8.640;2022-08-03T02:47:09;20.60;99.90
26342;DHT22;14054;50.108;8.640;2022-08-03T02:49:37;20.60;99.90
26342;DHT22;14054;50.108;8.640;2022-08-03T02:52:03;20.60;99.90
26342;DHT22;14054;50.108;8.640;2022-08-03T02:54:31;20.60;99.90
26342;DHT22;14054;50.108;8.640;2022-08-03T02:56:57;20.80;99.90
26342;DHT22;14054;50.108;8.640;2022-08-03T02:59:23;20.50;99.90
26342;DHT22;14054;50.108;8.640;2022-08-03T03:01:50;20.50;99.90
26342;DHT22;14054;50.108;8.640;2022-08-03T03:06:43;20.10;99.90
26342;DHT22;14054;50.108;8.640;2022-08-03T03:09:09;20.20;99.90
26342;DHT22;14054;50.108;8.640;2022-08-03T03:11:37;20.20;99.90
26342;DHT22;14054;50.108;8.640;2022-08-03T03:14:03;20.20;99.90
26342;DHT22;14054;50.108;8.640;2022-08-03T03:16:30;20.10;99.90
26342;DHT22;14054;50.108;8.640;2022-08-03T03:18:57;20.00;99.90
26342;DHT22;14054;50.108;8.640;2022-08-03T03:21:24;20.00;99.90
26342;DHT22;14054;50.108;8.640;2022-08-03T03:23:51;19.90;99.90
26342;DHT22;14054;50.108;8.640;2022-08-03T03:26:17;19.90;99.90
26342;DHT22;14054;50.108;8.640;2022-08-03T03:28:44;19.90;99.90
26342;DHT22;14054;50.108;8.640;2022-08-03T03:31:10;20.00;99.90
26342;DHT22;14054;50.108;8.640;2022-08-03T03:33:37;20.00;99.90
26342;DHT22;14054;50.108;8.640;2022-08-03T03:36:04;19.90;99.90
26342;DHT22;14054;50.108;8.640;2022-08-03T03:38:31;19.90;99.90
26342;DHT22;14054;50.108;8.640;2022-08-03T03:40:57;19.90;99.90
26342;DHT22;14054;50.108;8.640;2022-08-03T03:43:24;19.90;99.90
26342;DHT22;14054;50.108;8.640;2022-08-03T03:45:49;19.80;99.90
26342;DHT22;14054;50.108;8.640;2022-08-03T03:48:15;19.90;99.90
26342;DHT22;14054;50.108;8.640;2022-08-03T03:50:42;19.80;99.90
26342;DHT22;14054;50.108;8.640;2022-08-03T03:53:09;19.90;99.90
26342;DHT22;14054;50.108;8.640;2022-08-03T03:55:36;20.10;99.90
26342;DHT22;14054;50.108;8.640;2022-08-03T03:58:03;20.10;99.90
26342;DHT22;14054;50.108;8.640;2022-08-03T04:00:28;20.00;99.90
26342;DHT22;14054;50.108;8.640;2022-08-03T04:02:54;20.00;99.90
26342;DHT22;14054;50.108;8.640;2022-08-03T04:05:19;20.00;99.90
26342;DHT22;14054;50.108;8.640;2022-08-03T04:08:11;20.10;99.90
26342;DHT22;14054;50.108;8.640;2022-08-03T04:11:10;19.90;99.90
26342;DHT22;14054;50.108;8.640;2022-08-03T04:16:13;19.90;99.90
26342;DHT22;14054;50.108;8.640;2022-08-03T04:18:41;19.90;99.90
26342;DHT22;14054;50.108;8.640;2022-08-03T04:21:10;19.80;99.90
26342;DHT22;14054;50.108;8.640;2022-08-03T04:23:40;19.80;99.90
26342;DHT22;14054;50.108;8.640;2022-08-03T04:26:08;19.80;99.90
26342;DHT22;14054;50.108;8.640;2022-08-03T04:28:42;19.70;99.90
26342;DHT22;14054;50.108;8.640;2022-08-03T04:31:09;19.90;99.90
26342;DHT22;14054;50.108;8.640;2022-08-03T04:33:36;19.80;99.90
26342;DHT22;14054;50.108;8.640;2022-08-03T04:36:05;19.90;99.90
26342;DHT22;14054;50.108;8.640;2022-08-03T04:38:36;20.10;99.90
26342;DHT22;14054;50.108;8.640;2022-08-03T04:41:04;20.00;99.90
26342;DHT22;14054;50.108;8.640;2022-08-03T04:43:31;20.00;99.90
26342;DHT22;14054;50.108;8.640;2022-08-03T04:45:58;20.10;99.90
26342;DHT22;14054;50.108;8.640;2022-08-03T04:48:24;19.90;99.90
26342;DHT22;14054;50.108;8.640;2022-08-03T04:50:51;20.00;99.90
26342;DHT22;14054;50.108;8.640;2022-08-03T04:53:17;20.00;99.90
26342;DHT22;14054;50.108;8.640;2022-08-03T04:55:43;20.00;99.90
26342;DHT22;14054;50.108;8.640;2022-08-03T04:58:08;20.00;99.90
26342;DHT22;14054;50.108;8.640;2022-08-03T05:00:34;20.10;99.90
26342;DHT22;14054;50.108;8.640;2022-08-03T05:02:59;20.20;99.90
26342;DHT22;14054;50.108;8.640;2022-08-03T05:05:25;20.20;99.90
26342;DHT22;14054;50.108;8.640;2022-08-03T05:07:50;20.20;99.90
26342;DHT22;14054;50.108;8.640;2022-08-03T05:10:17;20.20;99.90
26342;DHT22;14054;50.108;8.640;2022-08-03T05:12:44;20.30;99.90
26342;DHT22;14054;50.108;8.640;2022-08-03T05:15:10;20.40;99.90
26342;DHT22;14054;50.108;8.640;2022-08-03T05:17:35;20.50;99.90
26342;DHT22;14054;50.108;8.640;2022-08-03T05:20:01;20.60;99.90
26342;DHT22;14054;50.108;8.640;2022-08-03T05:22:28;20.60;99.90
26342;DHT22;14054;50.108;8.640;2022-08-03T05:24:54;20.60;99.90
26342;DHT22;14054;50.108;8.640;2022-08-03T05:27:19;20.70;99.90
26342;DHT22;14054;50.108;8.640;2022-08-03T05:29:46;20.80;99.90
26342;DHT22;14054;50.108;8.640;2022-08-03T05:32:12;20.90;99.90
26342;DHT22;14054;50.108;8.640;2022-08-03T05:34:38;20.90;99.90
26342;DHT22;14054;50.108;8.640;2022-08-03T05:37:04;21.00;99.90
26342;DHT22;14054;50.108;8.640;2022-08-03T05:39:29;21.10;99.90
26342;DHT22;14054;50.108;8.640;2022-08-03T05:41:55;21.10;99.90
26342;DHT22;14054;50.108;8.640;2022-08-03T05:44:20;21.20;99.90
26342;DHT22;14054;50.108;8.640;2022-08-03T05:46:46;21.30;99.90
26342;DHT22;14054;50.108;8.640;2022-08-03T05:49:11;21.40;99.90
26342;DHT22;14054;50.108;8.640;2022-08-03T05:51:37;21.40;99.90
26342;DHT22;14054;50.108;8.640;2022-08-03T05:54:03;21.50;99.90
26342;DHT22;14054;50.108;8.640;2022-08-03T05:56:28;21.50;99.90
26342;DHT22;14054;50.108;8.640;2022-08-03T05:58:54;21.60;99.90
26342;DHT22;14054;50.108;8.640;2022-08-03T06:01:20;21.60;99.90
26342;DHT22;14054;50.108;8.640;2022-08-03T06:03:46;21.70;99.90
26342;DHT22;14054;50.108;8.640;2022-08-03T06:06:12;21.70;99.90
26342;DHT22;14054;50.108;8.640;2022-08-03T06:08:38;21.80;99.90
26342;DHT22;14054;50.108;8.640;2022-08-03T06:11:04;21.90;99.90
26342;DHT22;14054;50.108;8.640;2022-08-03T06:13:30;21.90;99.90
26342;DHT22;14054;50.108;8.640;2022-08-03T06:15:55;22.10;99.90
26342;DHT22;14054;50.108;8.640;2022-08-03T06:18:21;22.20;99.90
26342;DHT22;14054;50.108;8.640;2022-08-03T06:20:47;22.30;99.90
26342;DHT22;14054;50.108;8.640;2022-08-03T06:23:12;22.30;99.90
26342;DHT22;14054;50.108;8.640;2022-08-03T06:25:38;22.30;99.90
26342;DHT22;14054;50.108;8.640;2022-08-03T06:28:03;22.30;99.90
26342;DHT22;14054;50.108;8.640;2022-08-03T06:30:29;22.50;99.90
26342;DHT22;14054;50.108;8.640;2022-08-03T06:32:55;22.50;99.90
26342;DHT22;14054;50.108;8.640;2022-08-03T06:35:20;22.60;99.90
26342;DHT22;14054;50.108;8.640;2022-08-03T06:37:47;22.80;99.90
26342;DHT22;14054;50.108;8.640;2022-08-03T06:40:16;22.80;99.90
26342;DHT22;14054;50.108;8.640;2022-08-03T06:42:41;22.90;99.90
26342;DHT22;14054;50.108;8.640;2022-08-03T06:45:08;23.10;99.90
26342;DHT22;14054;50.108;8.640;2022-08-03T06:47:37;23.10;99.90
26342;DHT22;14054;50.108;8.640;2022-08-03T06:50:05;23.30;99.90
26342;DHT22;14054;50.108;8.640;2022-08-03T06:52:30;23.30;99.90
26342;DHT22;14054;50.108;8.640;2022-08-03T06:54:57;23.40;99.90
26342;DHT22;14054;50.108;8.640;2022-08-03T06:57:22;23.50;99.90
26342;DHT22;14054;50.108;8.640;2022-08-03T06:59:48;23.50;99.90
26342;DHT22;14054;50.108;8.640;2022-08-03T07:02:14;23.60;99.90
26342;DHT22;14054;50.108;8.640;2022-08-03T07:04:39;23.90;99.90
26342;DHT22;14054;50.108;8.640;2022-08-03T07:07:04;23.80;99.90
26342;DHT22;14054;50.108;8.640;2022-08-03T07:09:30;23.80;99.90
26342;DHT22;14054;50.108;8.640;2022-08-03T07:11:56;23.90;99.90
26342;DHT22;14054;50.108;8.640;2022-08-03T07:14:22;24.10;99.90
26342;DHT22;14054;50.108;8.640;2022-08-03T07:16:47;24.20;99.90
26342;DHT22;14054;50.108;8.640;2022-08-03T07:19:13;24.30;99.90
26342;DHT22;14054;50.108;8.640;2022-08-03T07:21:38;24.40;99.90
26342;DHT22;14054;50.108;8.640;2022-08-03T07:24:04;24.40;99.90
26342;DHT22;14054;50.108;8.640;2022-08-03T07:26:33;24.70;99.90
26342;DHT22;14054;50.108;8.640;2022-08-03T07:28:58;24.80;99.90
26342;DHT22;14054;50.108;8.640;2022-08-03T07:31:26;25.00;99.90
26342;DHT22;14054;50.108;8.640;2022-08-03T07:33:52;25.20;99.70
26342;DHT22;14054;50.108;8.640;2022-08-03T07:36:17;25.30;99.50
26342;DHT22;14054;50.108;8.640;2022-08-03T07:38:43;25.60;98.80
26342;DHT22;14054;50.108;8.640;2022-08-03T07:41:08;25.60;97.80
26342;DHT22;14054;50.108;8.640;2022-08-03T07:43:34;25.80;96.90
26342;DHT22;14054;50.108;8.640;2022-08-03T07:45:59;25.90;96.60
26342;DHT22;14054;50.108;8.640;2022-08-03T07:48:25;26.00;95.70
26342;DHT22;14054;50.108;8.640;2022-08-03T07:50:50;26.10;95.40
26342;DHT22;14054;50.108;8.640;2022-08-03T07:53:17;26.20;95.20
26342;DHT22;14054;50.108;8.640;2022-08-03T07:55:42;26.50;94.40
26342;DHT22;14054;50.108;8.640;2022-08-03T07:58:10;26.50;94.80
26342;DHT22;14054;50.108;8.640;2022-08-03T08:00:40;26.70;94.40
26342;DHT22;14054;50.108;8.640;2022-08-03T08:03:05;26.80;94.50
26342;DHT22;14054;50.108;8.640;2022-08-03T08:05:31;27.00;93.60
26342;DHT22;14054;50.108;8.640;2022-08-03T08:07:57;27.10;92.60
26342;DHT22;14054;50.108;8.640;2022-08-03T08:10:22;27.10;91.80
26342;DHT22;14054;50.108;8.640;2022-08-03T08:12:48;27.00;91.50
26342;DHT22;14054;50.108;8.640;2022-08-03T08:15:13;27.10;91.30
26342;DHT22;14054;50.108;8.640;2022-08-03T08:20:10;28.00;99.90
26342;DHT22;14054;50.108;8.640;2022-08-03T08:22:35;27.90;99.90
26342;DHT22;14054;50.108;8.640;2022-08-03T08:25:01;28.10;99.90
26342;DHT22;14054;50.108;8.640;2022-08-03T08:32:18;28.50;92.00
26342;DHT22;14054;50.108;8.640;2022-08-03T08:34:43;29.00;99.50
26342;DHT22;14054;50.108;8.640;2022-08-03T08:37:09;28.80;99.60
26342;DHT22;14054;50.108;8.640;2022-08-03T08:39:35;29.20;89.40
26342;DHT22;14054;50.108;8.640;2022-08-03T08:42:00;29.00;82.60
26342;DHT22;14054;50.108;8.640;2022-08-03T08:44:26;29.00;83.20
26342;DHT22;14054;50.108;8.640;2022-08-03T08:46:52;28.90;82.20
26342;DHT22;14054;50.108;8.640;2022-08-03T08:49:21;29.00;82.40
26342;DHT22;14054;50.108;8.640;2022-08-03T08:51:48;28.90;81.50
26342;DHT22;14054;50.108;8.640;2022-08-03T08:54:17;28.90;80.70
26342;DHT22;14054;50.108;8.640;2022-08-03T08:56:45;29.20;80.00
26342;DHT22;14054;50.108;8.640;2022-08-03T08:59:11;29.20;79.20
26342;DHT22;14054;50.108;8.640;2022-08-03T09:01:37;29.40;78.50
26342;DHT22;14054;50.108;8.640;2022-08-03T09:04:05;29.70;78.60
26342;DHT22;14054;50.108;8.640;2022-08-03T09:06:31;29.80;76.00
26342;DHT22;14054;50.108;8.640;2022-08-03T09:08:57;29.70;75.00
26342;DHT22;14054;50.108;8.640;2022-08-03T09:11:22;29.70;75.00
26342;DHT22;14054;50.108;8.640;2022-08-03T09:13:48;29.80;74.10
26342;DHT22;14054;50.108;8.640;2022-08-03T09:16:16;29.90;74.90
26342;DHT22;14054;50.108;8.640;2022-08-03T09:18:45;30.20;73.90
26342;DHT22;14054;50.108;8.640;2022-08-03T09:23:50;30.50;71.10
26342;DHT22;14054;50.108;8.640;2022-08-03T09:26:20;30.50;71.60
26342;DHT22;14054;50.108;8.640;2022-08-03T09:28:46;30.40;68.90
26342;DHT22;14054;50.108;8.640;2022-08-03T09:31:18;30.40;69.80
26342;DHT22;14054;50.108;8.640;2022-08-03T09:33:47;30.70;69.60
26342;DHT22;14054;50.108;8.640;2022-08-03T09:36:46;30.50;67.40
26342;DHT22;14054;50.108;8.640;2022-08-03T09:39:26;30.40;68.60
26342;DHT22;14054;50.108;8.640;2022-08-03T09:42:12;30.70;67.30
26342;DHT22;14054;50.108;8.640;2022-08-03T09:44:40;30.60;67.90
26342;DHT22;14054;50.108;8.640;2022-08-03T09:47:08;31.00;67.50
26342;DHT22;14054;50.108;8.640;2022-08-03T09:49:38;31.20;67.30
26342;DHT22;14054;50.108;8.640;2022-08-03T09:52:17;31.20;66.80
26342;DHT22;14054;50.108;8.640;2022-08-03T09:54:51;31.40;68.30
26342;DHT22;14054;50.108;8.640;2022-08-03T09:57:24;31.70;66.00
26342;DHT22;14054;50.108;8.640;2022-08-03T09:59:51;31.60;64.30
26342;DHT22;14054;50.108;8.640;2022-08-03T10:02:24;31.40;63.70
26342;DHT22;14054;50.108;8.640;2022-08-03T10:04:51;31.10;63.90
26342;DHT22;14054;50.108;8.640;2022-08-03T10:07:18;31.20;64.10
26342;DHT22;14054;50.108;8.640;2022-08-03T10:12:19;31.70;63.20
26342;DHT22;14054;50.108;8.640;2022-08-03T10:14:45;31.70;61.70
26342;DHT22;14054;50.108;8.640;2022-08-03T10:17:11;31.70;62.80
26342;DHT22;14054;50.108;8.640;2022-08-03T10:19:37;31.90;63.00
26342;DHT22;14054;50.108;8.640;2022-08-03T10:22:09;32.20;63.60
26342;DHT22;14054;50.108;8.640;2022-08-03T10:24:38;32.40;61.90
26342;DHT22;14054;50.108;8.640;2022-08-03T10:27:07;32.10;60.80
26342;DHT22;14054;50.108;8.640;2022-08-03T10:29:42;32.20;60.90
26342;DHT22;14054;50.108;8.640;2022-08-03T10:32:27;32.40;59.70
26342;DHT22;14054;50.108;8.640;2022-08-03T10:35:02;32.40;59.40
26342;DHT22;14054;50.108;8.640;2022-08-03T10:37:31;32.20;60.20
26342;DHT22;14054;50.108;8.640;2022-08-03T10:39:59;32.70;59.70
26342;DHT22;14054;50.108;8.640;2022-08-03T10:42:25;32.90;58.40
26342;DHT22;14054;50.108;8.640;2022-08-03T10:45:05;33.10;58.00
26342;DHT22;14054;50.108;8.640;2022-08-03T10:47:31;33.10;57.60
26342;DHT22;14054;50.108;8.640;2022-08-03T10:49:58;33.40;57.20
26342;DHT22;14054;50.108;8.640;2022-08-03T10:52:24;33.30;56.60
26342;DHT22;14054;50.108;8.640;2022-08-03T10:54:49;33.50;56.50
26342;DHT22;14054;50.108;8.640;2022-08-03T10:57:51;33.40;56.40
26342;DHT22;14054;50.108;8.640;2022-08-03T11:00:20;33.50;56.10
26342;DHT22;14054;50.108;8.640;2022-08-03T11:03:10;33.40;55.70
26342;DHT22;14054;50.108;8.640;2022-08-03T11:05:42;33.50;55.60
26342;DHT22;14054;50.108;8.640;2022-08-03T11:08:29;33.60;55.20
26342;DHT22;14054;50.108;8.640;2022-08-03T11:10:58;33.80;54.40
26342;DHT22;14054;50.108;8.640;2022-08-03T11:13:25;33.50;54.20
26342;DHT22;14054;50.108;8.640;2022-08-03T11:15:55;33.80;53.90
26342;DHT22;14054;50.108;8.640;2022-08-03T11:18:22;33.90;53.90
26342;DHT22;14054;50.108;8.640;2022-08-03T11:20:51;34.00;53.70
26342;DHT22;14054;50.108;8.640;2022-08-03T11:23:40;33.80;53.50
26342;DHT22;14054;50.108;8.640;2022-08-03T11:26:11;36.00;58.40
26342;DHT22;14054;50.108;8.640;2022-08-03T11:28:37;36.40;50.60
26342;DHT22;14054;50.108;8.640;2022-08-03T11:34:05;37.80;59.50
26342;DHT22;14054;50.108;8.640;2022-08-03T11:39:42;38.20;43.50
26342;DHT22;14054;50.108;8.640;2022-08-03T11:44:53;39.10;81.80
26342;DHT22;14054;50.108;8.640;2022-08-03T11:47:24;38.40;79.80
26342;DHT22;14054;50.108;8.640;2022-08-03T11:49:54;39.20;77.60
26342;DHT22;14054;50.108;8.640;2022-08-03T11:52:21;39.80;39.70
26342;DHT22;14054;50.108;8.640;2022-08-03T11:57:29;41.00;38.40
26342;DHT22;14054;50.108;8.640;2022-08-03T11:59:55;41.10;44.80
26342;DHT22;14054;50.108;8.640;2022-08-03T12:02:21;41.10;66.90
26342;DHT22;14054;50.108;8.640;2022-08-03T12:04:57;40.10;71.20
26342;DHT22;14054;50.108;8.640;2022-08-03T12:07:25;40.20;58.90
26342;DHT22;14054;50.108;8.640;2022-08-03T12:10:10;41.30;54.40
26342;DHT22;14054;50.108;8.640;2022-08-03T12:12:36;40.20;55.50
26342;DHT22;14054;50.108;8.640;2022-08-03T12:15:03;41.90;54.50
26342;DHT22;14054;50.108;8.640;2022-08-03T12:20:00;41.70;34.10
26342;DHT22;14054;50.108;8.640;2022-08-03T12:24:58;40.80;35.40
26342;DHT22;14054;50.108;8.640;2022-08-03T12:27:24;41.10;35.30
26342;DHT22;14054;50.108;8.640;2022-08-03T12:29:55;40.30;36.00
26342;DHT22;14054;50.108;8.640;2022-08-03T12:32:22;40.10;35.90
26342;DHT22;14054;50.108;8.640;2022-08-03T12:34:48;40.50;35.70
26342;DHT22;14054;50.108;8.640;2022-08-03T12:37:17;40.00;35.90
26342;DHT22;14054;50.108;8.640;2022-08-03T12:39:49;40.70;35.80
26342;DHT22;14054;50.108;8.640;2022-08-03T12:42:15;41.30;34.60
26342;DHT22;14054;50.108;8.640;2022-08-03T12:44:40;41.50;34.80
26342;DHT22;14054;50.108;8.640;2022-08-03T12:47:06;41.90;33.60
26342;DHT22;14054;50.108;8.640;2022-08-03T12:49:46;41.20;34.00
26342;DHT22;14054;50.108;8.640;2022-08-03T12:52:12;41.60;33.40
26342;DHT22;14054;50.108;8.640;2022-08-03T12:54:38;40.70;33.80
26342;DHT22;14054;50.108;8.640;2022-08-03T12:59:39;41.30;33.90
26342;DHT22;14054;50.108;8.640;2022-08-03T13:04:39;43.30;31.90
26342;DHT22;14054;50.108;8.640;2022-08-03T13:07:08;42.50;31.40
26342;DHT22;14054;50.108;8.640;2022-08-03T13:09:48;41.90;32.10
26342;DHT22;14054;50.108;8.640;2022-08-03T13:12:15;42.30;32.10
26342;DHT22;14054;50.108;8.640;2022-08-03T13:14:43;43.00;31.60
26342;DHT22;14054;50.108;8.640;2022-08-03T13:19:38;43.20;70.20
26342;DHT22;14054;50.108;8.640;2022-08-03T13:22:18;42.70;71.90
26342;DHT22;14054;50.108;8.640;2022-08-03T13:24:46;41.90;68.90
26342;DHT22;14054;50.108;8.640;2022-08-03T13:27:13;43.00;67.60
26342;DHT22;14054;50.108;8.640;2022-08-03T13:29:38;43.60;66.80
26342;DHT22;14054;50.108;8.640;2022-08-03T13:32:06;42.00;69.30
26342;DHT22;14054;50.108;8.640;2022-08-03T13:34:32;41.00;67.80
26342;DHT22;14054;50.108;8.640;2022-08-03T13:36:57;40.50;71.30
26342;DHT22;14054;50.108;8.640;2022-08-03T13:39:23;41.60;70.20
26342;DHT22;14054;50.108;8.640;2022-08-03T13:41:51;42.30;67.40
26342;DHT22;14054;50.108;8.640;2022-08-03T13:44:17;42.00;68.60
26342;DHT22;14054;50.108;8.640;2022-08-03T13:46:43;42.40;68.20
26342;DHT22;14054;50.108;8.640;2022-08-03T13:49:09;42.70;66.90
26342;DHT22;14054;50.108;8.640;2022-08-03T13:51:34;41.60;66.00
26342;DHT22;14054;50.108;8.640;2022-08-03T13:54:00;42.30;65.10
26342;DHT22;14054;50.108;8.640;2022-08-03T13:56:26;41.80;65.30
26342;DHT22;14054;50.108;8.640;2022-08-03T13:58:52;42.30;64.10
26342;DHT22;14054;50.108;8.640;2022-08-03T14:01:18;42.30;64.60
26342;DHT22;14054;50.108;8.640;2022-08-03T14:03:43;42.30;64.80
26342;DHT22;14054;50.108;8.640;2022-08-03T14:06:10;41.60;65.10
26342;DHT22;14054;50.108;8.640;2022-08-03T14:08:39;42.20;64.50
26342;DHT22;14054;50.108;8.640;2022-08-03T14:11:04;42.40;65.40
26342;DHT22;14054;50.108;8.640;2022-08-03T14:13:30;42.00;65.70
26342;DHT22;14054;50.108;8.640;2022-08-03T14:15:56;41.80;65.10
26342;DHT22;14054;50.108;8.640;2022-08-03T14:18:21;42.10;66.60
26342;DHT22;14054;50.108;8.640;2022-08-03T14:20:47;41.80;65.90
26342;DHT22;14054;50.108;8.640;2022-08-03T14:23:13;42.20;65.90
26342;DHT22;14054;50.108;8.640;2022-08-03T14:25:39;42.90;64.20
26342;DHT22;14054;50.108;8.640;2022-08-03T14:28:06;42.70;64.90
26342;DHT22;14054;50.108;8.640;2022-08-03T14:30:32;42.50;64.30
26342;DHT22;14054;50.108;8.640;2022-08-03T14:32:57;42.80;64.20
26342;DHT22;14054;50.108;8.640;2022-08-03T14:35:23;42.50;64.90
26342;DHT22;14054;50.108;8.640;2022-08-03T14:37:49;42.30;64.80
26342;DHT22;14054;50.108;8.640;2022-08-03T14:40:16;42.40;64.90
26342;DHT22;14054;50.108;8.640;2022-08-03T14:42:42;41.50;64.90
26342;DHT22;14054;50.108;8.640;2022-08-03T14:45:10;41.70;64.90
26342;DHT22;14054;50.108;8.640;2022-08-03T14:47:37;41.60;65.90
26342;DHT22;14054;50.108;8.640;2022-08-03T14:50:03;40.50;67.30
26342;DHT22;14054;50.108;8.640;2022-08-03T14:52:30;39.10;38.30
26342;DHT22;14054;50.108;8.640;2022-08-03T14:57:22;37.20;65.20
26342;DHT22;14054;50.108;8.640;2022-08-03T15:02:14;36.00;37.80
26342;DHT22;14054;50.108;8.640;2022-08-03T15:07:05;35.60;39.20
26342;DHT22;14054;50.108;8.640;2022-08-03T15:14:23;35.10;39.60
26342;DHT22;14054;50.108;8.640;2022-08-03T15:16:48;35.10;40.70
26342;DHT22;14054;50.108;8.640;2022-08-03T15:19:14;35.00;40.90
26342;DHT22;14054;50.108;8.640;2022-08-03T15:21:39;35.00;40.70
26342;DHT22;14054;50.108;8.640;2022-08-03T15:24:05;34.90;41.20
26342;DHT22;14054;50.108;8.640;2022-08-03T15:26:31;34.60;42.30
26342;DHT22;14054;50.108;8.640;2022-08-03T15:28:57;34.60;58.50
26342;DHT22;14054;50.108;8.640;2022-08-03T15:31:23;34.50;58.20
26342;DHT22;14054;50.108;8.640;2022-08-03T15:33:49;34.50;56.40
26342;DHT22;14054;50.108;8.640;2022-08-03T15:36:20;34.20;55.70
26342;DHT22;14054;50.108;8.640;2022-08-03T15:43:41;34.00;40.70
26342;DHT22;14054;50.108;8.640;2022-08-03T15:46:06;34.10;41.70
26342;DHT22;14054;50.108;8.640;2022-08-03T15:48:32;34.00;41.60
26342;DHT22;14054;50.108;8.640;2022-08-03T15:50:57;34.00;41.90
26342;DHT22;14054;50.108;8.640;2022-08-03T15:53:26;34.00;42.30
26342;DHT22;14054;50.108;8.640;2022-08-03T15:55:51;33.80;42.40
26342;DHT22;14054;50.108;8.640;2022-08-03T15:58:17;33.80;42.50
26342;DHT22;14054;50.108;8.640;2022-08-03T16:00:42;33.70;42.30
26342;DHT22;14054;50.108;8.640;2022-08-03T16:03:09;33.60;42.40
26342;DHT22;14054;50.108;8.640;2022-08-03T16:05:35;33.60;43.10
26342;DHT22;14054;50.108;8.640;2022-08-03T16:08:00;33.60;43.40
26342;DHT22;14054;50.108;8.640;2022-08-03T16:10:26;33.60;44.10
26342;DHT22;14054;50.108;8.640;2022-08-03T16:12:55;33.50;43.20
26342;DHT22;14054;50.108;8.640;2022-08-03T16:15:20;33.50;42.70
26342;DHT22;14054;50.108;8.640;2022-08-03T16:17:46;33.50;42.90
26342;DHT22;14054;50.108;8.640;2022-08-03T16:20:11;33.40;42.60
26342;DHT22;14054;50.108;8.640;2022-08-03T16:22:45;33.30;43.10
26342;DHT22;14054;50.108;8.640;2022-08-03T16:25:12;33.30;42.90
26342;DHT22;14054;50.108;8.640;2022-08-03T16:27:38;33.30;42.90
26342;DHT22;14054;50.108;8.640;2022-08-03T16:30:05;33.30;43.00
26342;DHT22;14054;50.108;8.640;2022-08-03T16:32:31;33.20;43.60
26342;DHT22;14054;50.108;8.640;2022-08-03T16:34:57;33.20;43.60
26342;DHT22;14054;50.108;8.640;2022-08-03T16:37:22;33.10;43.70
26342;DHT22;14054;50.108;8.640;2022-08-03T16:39:48;33.20;43.50
26342;DHT22;14054;50.108;8.640;2022-08-03T16:42:13;33.20;44.00
26342;DHT22;14054;50.108;8.640;2022-08-03T16:44:39;33.10;43.40
26342;DHT22;14054;50.108;8.640;2022-08-03T16:47:04;33.10;43.60
26342;DHT22;14054;50.108;8.640;2022-08-03T16:49:30;33.10;43.60